Time;durP1;ratioP1;P1;durP2;ratioP2;P2;SDS_P1;SDS_P2;PMS_P1;PMS_P2;Temp;Humidity;BMP_temperature;BMP_pressure;BME280_temperature;BME280_humidity;BME280_pressure;Samples;Min_cycle;Max_cycle;Signal;HPM_P1;HPM_P2
2022/01/14 00:02:00;;;;;;;212.95;120.50;;;;;;;;;;5133843;28;20026;-69
2022/01/14 00:04:27;;;;;;;163.82;94.53;;;;;;;;;;5133752;28;20031;-69
2022/01/14 00:06:53;;;;;;;166.68;95.00;;;;;;;;;;5133511;28;20077;-71
2022/01/14 00:09:19;;;;;;;131.38;78.13;;;;;;;;;;5133128;28;20027;-66
2022/01/14 00:11:49;;;;;;;139.30;81.35;;;;;;;;;;5133243;28;20446;-68
2022/01/14 00:16:45;;;;;;;125.68;72.45;;;;;;;;;;5135967;27;20050;-66
2022/01/14 00:19:11;;;;;;;118.82;70.03;;;;;;;;;;5138053;27;20373;-70
2022/01/14 00:21:40;;;;;;;116.72;67.43;;;;;;;;;;5137622;27;20023;-67
2022/01/14 00:24:11;;;;;;;145.27;82.40;;;;;;;;;;5137434;27;20035;-67
2022/01/14 00:31:42;;;;;;;108.13;59.15;;;;;;;;;;5137872;27;20038;-66
2022/01/14 00:32:43;;;;;;;103.50;55.55;;;;;;;;;;5137365;27;20443;-68
2022/01/14 00:35:09;;;;;;;;;;;;;;;;;;5136126;27;20035;-67
2022/01/14 00:37:35;;;;;;;87.85;52.20;;;;;;;;;;5137745;27;20372;-68
2022/01/14 00:40:01;;;;;;;93.30;51.33;;;;;;;;;;5137366;27;20111;-66
2022/01/14 00:42:27;;;;;;;93.78;50.25;;;;;;;;;;5137232;27;20034;-70
2022/01/14 00:44:53;;;;;;;94.68;48.97;;;;;;;;;;5137174;27;20036;-71
2022/01/14 00:47:19;;;;;;;91.13;49.78;;;;;;;;;;5136872;27;20068;-67
2022/01/14 00:49:46;;;;;;;108.28;60.50;;;;;;;;;;5137111;27;20030;-66
2022/01/14 00:52:12;;;;;;;109.80;59.78;;;;;;;;;;5137005;27;20043;-70
2022/01/14 00:54:38;;;;;;;114.55;66.00;;;;;;;;;;5137243;27;20030;-71
2022/01/14 00:59:33;;;;;;;146.75;77.95;;;;;;;;;;5136922;27;20386;-67
2022/01/14 01:02:00;;;;;;;96.95;54.70;;;;;;;;;;5136906;27;20015;-67
2022/01/14 01:04:33;;;;;;;94.70;51.60;;;;;;;;;;5136954;27;20031;-67
2022/01/14 01:07:01;;;;;;;79.20;45.35;;;;;;;;;;5136811;27;20030;-66
2022/01/14 01:09:29;;;;;;;72.40;42.15;;;;;;;;;;5136836;27;20027;-71
2022/01/14 01:12:15;;;;;;;70.25;40.97;;;;;;;;;;5136722;27;20039;-67
2022/01/14 01:14:49;;;;;;;82.63;43.90;;;;;;;;;;5136619;27;20485;-66
2022/01/14 01:17:16;;;;;;;64.32;37.13;;;;;;;;;;5136773;27;20030;-70
2022/01/14 01:19:43;;;;;;;68.57;39.08;;;;;;;;;;5136560;27;20083;-71
2022/01/14 01:22:09;;;;;;;61.83;36.42;;;;;;;;;;5136935;27;20051;-71
2022/01/14 01:24:36;;;;;;;67.30;35.47;;;;;;;;;;5136359;27;20046;-70
2022/01/14 01:27:08;;;;;;;57.30;33.30;;;;;;;;;;5135590;27;20027;-71
2022/01/14 01:32:04;;;;;;;63.53;33.97;;;;;;;;;;5136594;27;20031;-68
2022/01/14 01:34:30;;;;;;;55.15;30.42;;;;;;;;;;5136341;27;20023;-67
2022/01/14 01:36:57;;;;;;;53.22;30.20;;;;;;;;;;5136307;27;20029;-70
2022/01/14 01:39:28;;;;;;;49.95;27.63;;;;;;;;;;5136619;27;20019;-67
2022/01/14 01:41:55;;;;;;;47.33;28.13;;;;;;;;;;5136073;27;20028;-67
2022/01/14 01:44:22;;;;;;;53.38;31.63;;;;;;;;;;5136203;27;20374;-66
2022/01/14 01:46:49;;;;;;;51.15;31.52;;;;;;;;;;5136198;27;20027;-65
2022/01/14 01:49:18;;;;;;;62.63;37.55;;;;;;;;;;5135944;27;20080;-70
2022/01/14 01:51:45;;;;;;;67.15;37.15;;;;;;;;;;5135996;27;20385;-70
2022/01/14 01:54:11;;;;;;;64.93;37.13;;;;;;;;;;5135840;27;20092;-71
2022/01/14 01:56:37;;;;;;;105.85;54.15;;;;;;;;;;5135595;27;20020;-66
2022/01/14 01:59:03;;;;;;;62.67;36.97;;;;;;;;;;5135812;27;20474;-70
2022/01/14 02:01:30;;;;;;;60.50;35.10;;;;;;;;;;5135736;27;20019;-71
2022/01/14 02:03:58;;;;;;;61.10;35.17;;;;;;;;;;5135542;27;20031;-67
2022/01/14 02:06:25;;;;;;;60.03;33.75;;;;;;;;;;5135326;27;20068;-71
2022/01/14 02:08:53;;;;;;;57.25;32.88;;;;;;;;;;5135584;27;20027;-66
2022/01/14 02:11:20;;;;;;;54.08;30.27;;;;;;;;;;5135484;27;20015;-67
2022/01/14 02:13:50;;;;;;;55.33;32.53;;;;;;;;;;5135414;27;20230;-72
2022/01/14 02:16:30;;;;;;;58.40;33.47;;;;;;;;;;5135490;27;20359;-71
2022/01/14 02:26:50;;;;;;;48.85;31.00;;;;;;;;;;5135371;27;20419;-66
2022/01/14 02:29:16;;;;;;;50.22;31.00;;;;;;;;;;5135296;27;20019;-69
2022/01/14 02:31:43;;;;;;;58.53;37.35;;;;;;;;;;5135101;27;20030;-66
2022/01/14 02:34:12;;;;;;;53.67;30.10;;;;;;;;;;5135050;27;20050;-70
2022/01/14 02:36:40;;;;;;;54.40;31.50;;;;;;;;;;5133696;27;20465;-66
2022/01/14 02:39:06;;;;;;;50.50;31.10;;;;;;;;;;5133690;27;20031;-67
2022/01/14 02:41:34;;;;;;;48.17;28.10;;;;;;;;;;5135294;27;20027;-65
2022/01/14 02:44:08;;;;;;;44.33;26.75;;;;;;;;;;5134836;27;20031;-66
2022/01/14 02:46:39;;;;;;;45.17;27.35;;;;;;;;;;5134762;27;20015;-66
2022/01/14 02:49:05;;;;;;;184.85;90.57;;;;;;;;;;5134784;27;20027;-72
2022/01/14 02:51:32;;;;;;;82.30;42.92;;;;;;;;;;5134565;27;20027;-71
2022/01/14 02:54:19;;;;;;;45.80;27.02;;;;;;;;;;5134544;27;20115;-70
2022/01/14 02:56:47;;;;;;;45.75;26.63;;;;;;;;;;5134601;27;20023;-70
2022/01/14 02:59:16;;;;;;;49.13;30.80;;;;;;;;;;5134558;27;20039;-66
2022/01/14 03:01:43;;;;;;;53.30;31.23;;;;;;;;;;5134771;27;20084;-74
2022/01/14 03:04:10;;;;;;;54.33;30.45;;;;;;;;;;5134631;27;20041;-70
2022/01/14 03:06:36;;;;;;;46.83;29.13;;;;;;;;;;5134338;27;20533;-67
2022/01/14 03:09:02;;;;;;;53.83;32.00;;;;;;;;;;5134431;27;20412;-72
2022/01/14 03:11:28;;;;;;;56.10;35.83;;;;;;;;;;5134510;27;20023;-72
2022/01/14 03:13:54;;;;;;;59.25;36.47;;;;;;;;;;5134505;27;20476;-72
2022/01/14 03:16:21;;;;;;;68.00;37.33;;;;;;;;;;5134128;27;20015;-66
2022/01/14 03:18:50;;;;;;;59.85;36.92;;;;;;;;;;5134391;27;20377;-67
2022/01/14 03:21:25;;;;;;;66.88;41.60;;;;;;;;;;5134029;27;20015;-71
2022/01/14 03:24:02;;;;;;;72.97;41.22;;;;;;;;;;5134485;27;20122;-67
2022/01/14 03:26:29;;;;;;;83.97;47.20;;;;;;;;;;5134141;27;20500;-69
2022/01/14 03:28:55;;;;;;;77.88;43.60;;;;;;;;;;5134380;27;20023;-70
2022/01/14 03:31:21;;;;;;;82.65;46.20;;;;;;;;;;5134088;27;20106;-70
2022/01/14 03:33:48;;;;;;;70.07;40.92;;;;;;;;;;5134060;27;20451;-68
2022/01/14 03:36:14;;;;;;;70.75;41.80;;;;;;;;;;5134032;27;20026;-69
2022/01/14 03:38:40;;;;;;;60.83;37.33;;;;;;;;;;5133897;27;20015;-67
2022/01/14 03:41:06;;;;;;;64.60;43.22;;;;;;;;;;5133064;27;20457;-67
2022/01/14 03:43:35;;;;;;;55.70;34.25;;;;;;;;;;5133546;27;20102;-70
2022/01/14 03:46:01;;;;;;;53.58;33.00;;;;;;;;;;5133883;27;20019;-67
2022/01/14 03:48:27;;;;;;;56.95;35.45;;;;;;;;;;5133743;27;20042;-71
2022/01/14 03:50:53;;;;;;;67.60;40.35;;;;;;;;;;5133280;27;20019;-71
2022/01/14 03:53:20;;;;;;;71.45;40.47;;;;;;;;;;5133484;27;20043;-66
2022/01/14 03:55:46;;;;;;;67.82;38.05;;;;;;;;;;5133889;27;20122;-67
2022/01/14 03:58:12;;;;;;;62.42;35.20;;;;;;;;;;5133817;28;20027;-71
2022/01/14 04:00:41;;;;;;;71.55;38.53;;;;;;;;;;5133594;28;20015;-67
2022/01/14 04:03:08;;;;;;;79.72;44.50;;;;;;;;;;5133598;28;20030;-67
2022/01/14 04:05:34;;;;;;;89.35;48.40;;;;;;;;;;5133561;28;20485;-67
2022/01/14 04:08:06;;;;;;;68.10;40.65;;;;;;;;;;5133811;28;20034;-67
2022/01/14 04:10:32;;;;;;;109.47;59.42;;;;;;;;;;5133482;28;20035;-67
2022/01/14 04:13:12;;;;;;;175.30;93.78;;;;;;;;;;5133414;28;20027;-67
2022/01/14 04:15:43;;;;;;;137.23;81.70;;;;;;;;;;5133518;27;20028;-67
2022/01/14 04:18:19;;;;;;;121.13;73.50;;;;;;;;;;5133755;27;20031;-67
2022/01/14 04:20:49;;;;;;;141.38;83.18;;;;;;;;;;5133551;27;20110;-66
2022/01/14 04:23:18;;;;;;;145.13;88.07;;;;;;;;;;5133114;28;20024;-67
2022/01/14 04:25:45;;;;;;;138.20;87.18;;;;;;;;;;5133781;27;20180;-67
2022/01/14 04:28:11;;;;;;;133.13;83.93;;;;;;;;;;5133724;28;20026;-66
2022/01/14 04:30:37;;;;;;;140.70;88.60;;;;;;;;;;5133473;28;20023;-70
2022/01/14 04:33:04;;;;;;;149.90;94.18;;;;;;;;;;5133497;28;20015;-70
2022/01/14 04:35:31;;;;;;;208.63;122.25;;;;;;;;;;5133382;28;20485;-68
2022/01/14 04:37:57;;;;;;;187.23;110.55;;;;;;;;;;5133302;28;20106;-68
2022/01/14 04:40:26;;;;;;;202.30;126.38;;;;;;;;;;5133114;28;20015;-70
2022/01/14 04:42:53;;;;;;;185.95;111.25;;;;;;;;;;5133434;28;20027;-67
2022/01/14 04:45:42;;;;;;;253.15;138.23;;;;;;;;;;5131545;28;20066;-67
2022/01/14 04:48:10;;;;;;;196.88;115.63;;;;;;;;;;5133196;27;20473;-67
2022/01/14 04:50:36;;;;;;;257.45;140.80;;;;;;;;;;5133251;28;20019;-70
2022/01/14 04:53:02;;;;;;;186.13;105.88;;;;;;;;;;5132772;28;20043;-66
2022/01/14 04:55:28;;;;;;;144.45;85.35;;;;;;;;;;5133162;28;20019;-70
2022/01/14 04:57:55;;;;;;;182.60;103.97;;;;;;;;;;5133012;28;20038;-67
2022/01/14 05:00:22;;;;;;;213.00;120.63;;;;;;;;;;5133110;28;20067;-66
2022/01/14 05:02:51;;;;;;;195.38;108.47;;;;;;;;;;5134339;27;20126;-67
2022/01/14 05:05:20;;;;;;;137.15;83.20;;;;;;;;;;5136590;27;20498;-69
2022/01/14 05:07:47;;;;;;;182.25;108.90;;;;;;;;;;5136669;27;20058;-70
2022/01/14 05:12:49;;;;;;;161.07;99.47;;;;;;;;;;5136535;27;20377;-66
2022/01/14 05:15:19;;;;;;;183.65;112.10;;;;;;;;;;5136692;27;20026;-66
2022/01/14 05:17:45;;;;;;;169.48;105.65;;;;;;;;;;5136680;27;20030;-66
2022/01/14 05:20:13;;;;;;;159.27;101.55;;;;;;;;;;5136455;27;20102;-66
2022/01/14 05:22:39;;;;;;;160.32;99.13;;;;;;;;;;5136365;27;20038;-68
2022/01/14 05:25:06;;;;;;;133.70;83.03;;;;;;;;;;5136369;27;20031;-66
2022/01/14 05:27:32;;;;;;;141.65;85.60;;;;;;;;;;5136260;27;20042;-66
2022/01/14 05:29:58;;;;;;;150.65;96.38;;;;;;;;;;5136489;27;20371;-66
2022/01/14 05:32:26;;;;;;;163.38;96.05;;;;;;;;;;5136298;27;20015;-66
2022/01/14 05:34:52;;;;;;;149.88;91.32;;;;;;;;;;5136161;27;20023;-67
2022/01/14 05:37:18;;;;;;;146.45;91.65;;;;;;;;;;5136300;27;20031;-71
2022/01/14 05:39:44;;;;;;;144.65;88.82;;;;;;;;;;5135987;27;20066;-68
2022/01/14 05:42:10;;;;;;;142.27;94.13;;;;;;;;;;5135967;27;20027;-69
2022/01/14 05:44:37;;;;;;;152.57;97.20;;;;;;;;;;5135948;27;20032;-70
2022/01/14 05:47:03;;;;;;;159.73;99.28;;;;;;;;;;5135984;27;20067;-67
2022/01/14 05:49:30;;;;;;;261.65;144.18;;;;;;;;;;5135974;27;20102;-68
2022/01/14 05:51:56;;;;;;;224.95;134.85;;;;;;;;;;5135646;27;20019;-66
2022/01/14 05:54:22;;;;;;;203.20;124.90;;;;;;;;;;5136003;27;20027;-66
2022/01/14 05:56:48;;;;;;;190.55;121.65;;;;;;;;;;5135891;27;20098;-67
2022/01/14 05:59:15;;;;;;;207.00;128.18;;;;;;;;;;5135932;27;20027;-66
2022/01/14 06:01:44;;;;;;;226.35;134.80;;;;;;;;;;5135649;27;20045;-70
2022/01/14 06:04:10;;;;;;;202.20;121.07;;;;;;;;;;5135528;27;20130;-67
2022/01/14 06:06:36;;;;;;;189.27;118.80;;;;;;;;;;5135620;27;20591;-66
2022/01/14 06:09:05;;;;;;;219.88;133.15;;;;;;;;;;5135578;27;20023;-68
2022/01/14 06:11:31;;;;;;;250.60;149.30;;;;;;;;;;5135506;27;20076;-66
2022/01/14 06:13:57;;;;;;;264.80;159.35;;;;;;;;;;5135342;27;20446;-66
2022/01/14 06:16:23;;;;;;;282.58;174.93;;;;;;;;;;5135321;27;20041;-70
2022/01/14 06:18:49;;;;;;;325.65;194.85;;;;;;;;;;5135599;27;20054;-67
2022/01/14 06:21:16;;;;;;;335.90;207.50;;;;;;;;;;5134944;27;20026;-67
2022/01/14 06:23:42;;;;;;;304.48;185.60;;;;;;;;;;5134620;27;20523;-68
2022/01/14 06:26:08;;;;;;;295.35;183.23;;;;;;;;;;5135064;27;20019;-66
2022/01/14 06:28:34;;;;;;;289.45;173.57;;;;;;;;;;5134877;27;20500;-67
2022/01/14 06:31:01;;;;;;;294.38;180.00;;;;;;;;;;5134968;27;20023;-69
2022/01/14 06:33:27;;;;;;;284.35;170.18;;;;;;;;;;5134786;27;20027;-66
2022/01/14 06:35:53;;;;;;;288.75;173.38;;;;;;;;;;5134570;27;20030;-67
2022/01/14 06:38:20;;;;;;;273.50;162.88;;;;;;;;;;5134755;27;20019;-65
2022/01/14 06:40:48;;;;;;;232.85;137.30;;;;;;;;;;5134350;27;20030;-68
2022/01/14 06:43:15;;;;;;;227.50;134.43;;;;;;;;;;5134573;27;20038;-70
2022/01/14 06:45:41;;;;;;;202.90;119.13;;;;;;;;;;5134694;27;20050;-67
2022/01/14 06:48:07;;;;;;;202.77;119.60;;;;;;;;;;5134475;27;20524;-70
2022/01/14 06:50:33;;;;;;;198.00;120.95;;;;;;;;;;5134277;27;20027;-66
2022/01/14 06:52:59;;;;;;;190.88;112.65;;;;;;;;;;5134137;27;20118;-71
2022/01/14 06:55:26;;;;;;;194.32;115.18;;;;;;;;;;5134359;27;20034;-68
2022/01/14 06:57:55;;;;;;;243.63;142.98;;;;;;;;;;5134292;27;20114;-71
2022/01/14 07:00:21;;;;;;;230.90;137.50;;;;;;;;;;5134265;27;20019;-67
2022/01/14 07:02:48;;;;;;;251.57;144.02;;;;;;;;;;5134269;27;20098;-67
2022/01/14 07:05:14;;;;;;;252.95;143.18;;;;;;;;;;5133954;27;20038;-67
2022/01/14 07:07:40;;;;;;;263.42;144.77;;;;;;;;;;5134110;27;20498;-66
2022/01/14 07:10:07;;;;;;;220.93;125.43;;;;;;;;;;5134112;27;20031;-66
2022/01/14 07:12:43;;;;;;;237.25;137.75;;;;;;;;;;5134204;27;20054;-68
2022/01/14 07:15:10;;;;;;;189.75;108.18;;;;;;;;;;5134110;27;20023;-67
2022/01/14 07:17:40;;;;;;;176.60;99.18;;;;;;;;;;5133927;27;20045;-67
2022/01/14 07:20:11;;;;;;;165.00;97.90;;;;;;;;;;5133839;27;20073;-65
2022/01/14 07:22:38;;;;;;;225.35;127.90;;;;;;;;;;5132678;27;20435;-66
2022/01/14 07:25:04;;;;;;;196.93;111.95;;;;;;;;;;5133274;27;20074;-66
2022/01/14 07:27:32;;;;;;;168.18;104.72;;;;;;;;;;5134332;27;20095;-67
2022/01/14 07:29:58;;;;;;;159.93;96.57;;;;;;;;;;5133725;27;20015;-67
2022/01/14 07:32:24;;;;;;;189.55;117.30;;;;;;;;;;5133722;27;20019;-70
2022/01/14 07:34:50;;;;;;;175.10;108.65;;;;;;;;;;5133886;27;20023;-67
2022/01/14 07:37:20;;;;;;;160.35;106.53;;;;;;;;;;5133725;27;20023;-70
2022/01/14 07:39:46;;;;;;;150.30;97.90;;;;;;;;;;5133869;27;20431;-67
2022/01/14 07:42:13;;;;;;;174.13;108.53;;;;;;;;;;5133344;27;20030;-70
2022/01/14 07:44:39;;;;;;;149.20;94.28;;;;;;;;;;5133445;27;20121;-68
2022/01/14 07:47:05;;;;;;;181.18;114.20;;;;;;;;;;5133605;27;20075;-67
2022/01/14 07:49:31;;;;;;;129.02;80.18;;;;;;;;;;5133339;27;20031;-67
2022/01/14 07:51:58;;;;;;;129.52;84.03;;;;;;;;;;5133041;27;20477;-68
2022/01/14 07:54:24;;;;;;;121.40;77.72;;;;;;;;;;5132083;27;20046;-66
2022/01/14 07:56:52;;;;;;;125.45;79.28;;;;;;;;;;5133660;27;20066;-67
2022/01/14 07:59:21;;;;;;;136.93;86.32;;;;;;;;;;5133308;27;20127;-67
2022/01/14 08:01:47;;;;;;;153.05;100.47;;;;;;;;;;5133394;28;20023;-67
2022/01/14 08:04:15;;;;;;;164.60;110.30;;;;;;;;;;5133254;28;20042;-66
2022/01/14 08:06:46;;;;;;;173.45;116.28;;;;;;;;;;5133463;27;20012;-71
2022/01/14 08:09:12;;;;;;;188.10;126.40;;;;;;;;;;5133652;27;20469;-70
2022/01/14 08:11:41;;;;;;;173.18;118.78;;;;;;;;;;5133230;28;20076;-66
2022/01/14 08:14:10;;;;;;;167.48;114.53;;;;;;;;;;5133747;28;20023;-66
2022/01/14 08:16:36;;;;;;;164.77;111.47;;;;;;;;;;5133696;28;20024;-67
2022/01/14 08:19:02;;;;;;;145.27;100.85;;;;;;;;;;5133408;28;20028;-67
2022/01/14 08:21:28;;;;;;;140.70;95.18;;;;;;;;;;5133176;28;20050;-68
2022/01/14 08:23:55;;;;;;;124.85;84.68;;;;;;;;;;5133012;28;20067;-67
2022/01/14 08:26:21;;;;;;;128.57;87.78;;;;;;;;;;5133094;27;20106;-67
2022/01/14 08:28:47;;;;;;;132.93;86.35;;;;;;;;;;5133085;28;20024;-70
2022/01/14 08:31:14;;;;;;;128.30;85.28;;;;;;;;;;5132918;28;20073;-66
2022/01/14 08:33:42;;;;;;;157.15;106.00;;;;;;;;;;5133107;27;20030;-67
2022/01/14 08:36:09;;;;;;;153.75;104.30;;;;;;;;;;5133378;27;20046;-71
2022/01/14 08:38:41;;;;;;;168.15;108.60;;;;;;;;;;5137075;27;20102;-70
2022/01/14 08:41:07;;;;;;;200.50;136.23;;;;;;;;;;5137129;27;20210;-66
2022/01/14 08:43:33;;;;;;;166.15;110.10;;;;;;;;;;5136828;27;20052;-67
2022/01/14 08:46:02;;;;;;;166.27;115.38;;;;;;;;;;5137163;27;20027;-67
2022/01/14 08:48:30;;;;;;;175.50;122.65;;;;;;;;;;5137059;27;20023;-66
2022/01/14 08:50:56;;;;;;;184.93;126.30;;;;;;;;;;5135074;27;20471;-67
2022/01/14 08:53:22;;;;;;;192.00;136.50;;;154.20;2124.80;;;;;;5136498;27;20094;-64
2022/01/14 08:55:48;;;;;;;277.42;189.57;;;154.20;2099.20;;;;;;5136647;27;20055;-69
2022/01/14 08:58:14;;;;;;;248.80;167.70;;;154.50;2073.60;;;;;;5136681;27;20031;-68
2022/01/14 09:00:39;;;;;;;239.98;166.65;;;179.30;2048.00;;;;;;5136418;27;20492;-70
2022/01/14 09:03:06;;;;;;;246.95;171.00;;;179.30;2022.40;;;;;;5134446;27;20028;-67
2022/01/14 09:05:32;;;;;;;258.83;179.13;;;;;;;;;;5136400;27;20031;-67
2022/01/14 09:08:01;;;;;;;262.15;186.30;;;179.80;1971.20;;;;;;5136465;27;20045;-65
2022/01/14 09:10:28;;;;;;;268.65;192.30;;;;;;;;;;5136407;27;20088;-66
2022/01/14 09:12:54;;;;;;;273.65;207.25;;;;;;;;;;5136722;27;20373;-67
2022/01/14 09:15:27;;;;;;;239.40;173.57;;;;;;;;;;5136214;27;20110;-66
2022/01/14 09:17:53;;;;;;;271.48;194.93;;;358.80;1280.00;;;;;;5136154;27;20022;-68
2022/01/14 09:20:19;;;;;;;325.98;247.90;;;;;;;;;;5136354;27;20027;-67
2022/01/14 09:22:55;;;;;;;298.00;227.30;;;410.00;1126.40;;;;;;5136317;27;20461;-65
2022/01/14 09:25:21;;;;;;;335.25;257.05;;;;;;;;;;5136074;27;20043;-64
2022/01/14 09:27:50;;;;;;;307.42;247.25;;;;;;;;;;5136121;27;20354;-65
2022/01/14 09:30:19;;;;;;;360.27;285.20;;;486.50;947.20;;;;;;5136226;27;20019;-71
2022/01/14 09:32:45;;;;;;;397.85;307.52;;;436.10;998.40;;;;;;5135774;27;20015;-63
2022/01/14 09:35:13;;;;;;;417.88;333.58;;;;;;;;;;5135988;27;20386;-69
2022/01/14 09:37:44;;;;;;;404.58;326.85;;;436.10;998.40;;;;;;5135759;27;20015;-70
2022/01/14 09:40:12;;;;;;;336.30;286.25;;;;;;;;;;5135681;27;20027;-66
2022/01/14 09:42:44;;;;;;;342.45;293.98;;;487.30;870.40;;;;;;5135204;27;20459;-71
2022/01/14 09:45:11;;;;;;;339.33;292.33;;;512.00;870.40;;;;;;5135719;27;20039;-68
2022/01/14 09:47:37;;;;;;;361.67;310.58;;;;;;;;;;5135573;27;20028;-70
2022/01/14 09:50:06;;;;;;;365.77;314.95;;;;;;;;;;5134927;27;20077;-67
2022/01/14 09:52:33;;;;;;;364.88;312.35;;;;;;;;;;5135221;27;20470;-69
2022/01/14 09:54:59;;;;;;;352.67;309.05;;;;;;;;;;5135190;27;20056;-71
2022/01/14 09:57:25;;;;;;;383.00;335.45;;;;;;;;;;5135111;27;20023;-69
2022/01/14 09:59:54;;;;;;;373.63;329.88;;;;;;;;;;5135094;27;20424;-70
2022/01/14 10:02:34;;;;;;;363.30;320.60;;;;;;;;;;5133400;27;20478;-67
2022/01/14 10:05:04;;;;;;;365.33;325.20;;;;;;;;;;5135114;27;20031;-69
2022/01/14 10:07:32;;;;;;;384.70;342.25;;;589.70;742.40;;;;;;5135198;27;20080;-70
2022/01/14 10:10:00;;;;;;;361.33;322.55;;;;;;;;;;5133484;27;20039;-70
2022/01/14 10:12:27;;;;;;;366.60;326.58;;;;;;;;;;5135442;27;20054;-70
2022/01/14 10:14:58;;;;;;;380.67;339.33;;;;;;;;;;5135376;27;20377;-69
2022/01/14 10:17:25;;;;;;;362.80;323.58;;;;;;;;;;5135114;27;20030;-66
2022/01/14 10:19:53;;;;;;;358.55;320.50;;;;;;;;;;5134901;27;20066;-70
2022/01/14 10:22:30;;;;;;;356.90;319.52;;;;;;;;;;5135302;27;20377;-69
2022/01/14 10:25:05;;;;;;;345.60;308.70;;;640.90;691.20;;;;;;5133678;27;20043;-70
2022/01/14 10:27:38;;;;;;;349.02;311.88;;;;;;;;;;5134956;27;20019;-69
2022/01/14 10:30:19;;;;;;;339.15;303.27;;;;;;;;;;5134745;27;20023;-70
2022/01/14 10:32:53;;;;;;;352.17;314.47;;;;;;;;;;5135010;27;20125;-70
2022/01/14 10:35:20;;;;;;;336.42;301.20;;;;;;;;;;5133164;27;20035;-67
2022/01/14 10:37:47;;;;;;;343.23;306.67;;;;;;;;;;5134691;27;20015;-68
2022/01/14 10:40:22;;;;;;;288.70;258.00;;;;;;;;;;5134682;27;20023;-71
2022/01/14 10:42:50;;;;;;;88.60;74.95;;;;;;;;;;5116299;27;20516;-67
2022/01/14 10:45:27;;;;;;;62.70;51.63;;;;;;;;;;5134619;27;20131;-70
2022/01/14 10:48:05;;;;;;;46.17;36.30;;;716.80;691.20;;;;;;5134395;27;20018;-72
2022/01/14 10:50:36;;;;;;;56.63;42.65;;;691.60;716.80;;;;;;5134813;27;20027;-71
2022/01/14 10:53:08;;;;;;;47.13;35.42;;;;;;;;;;5134322;27;20047;-71
2022/01/14 10:55:34;;;;;;;;;;;;;;;;;;5134774;27;20031;-71
2022/01/14 10:58:02;;;;;;;33.78;27.60;;;;;;;;;;5134895;27;19959;-70
2022/01/14 11:00:28;;;;;;;46.40;35.17;;;;;;;;;;5133078;27;20027;-70
2022/01/14 11:02:54;;;;;;;16.42;12.43;;;691.40;716.80;;;;;;5134434;27;20024;-66
2022/01/14 11:05:24;;;;;;;29.27;23.70;;;;;;;;;;5133939;27;20046;-70
2022/01/14 11:07:52;;;;;;;29.52;23.15;;;;;;;;;;5134278;27;20461;-70
2022/01/14 11:10:18;;;;;;;49.90;37.70;;;;;;;;;;5134335;27;20023;-71
2022/01/14 11:12:44;;;;;;;26.25;20.95;;;;;;;;;;5134286;27;20015;-68
2022/01/14 11:15:11;;;;;;;28.70;22.63;;;;;;;;;;5133762;27;20019;-68
2022/01/14 11:17:38;;;;;;;31.98;23.67;;;691.30;716.80;;;;;;5134022;27;20434;-71
2022/01/14 11:20:07;;;;;;;53.22;41.15;;;691.30;716.80;;;;;;5133996;27;20023;-72
2022/01/14 11:25:18;;;;;;;23.33;18.55;;;;;;;;;;5133921;27;20049;-68
2022/01/14 11:27:54;;;;;;;25.95;19.80;;;;;;;;;;5133697;27;20034;-71
2022/01/14 11:30:21;;;;;;;26.75;20.73;;;;;;;;;;5133634;27;20023;-70
2022/01/14 11:32:53;;;;;;;26.23;22.10;;;;;;;;;;5133522;27;20723;-67
2022/01/14 11:35:23;;;;;;;15.98;13.52;;;;;;;;;;5133720;27;20151;-70
2022/01/14 11:37:49;;;;;;;17.65;15.10;;;;;;;;;;5133752;27;20023;-72
2022/01/14 11:40:15;;;;;;;23.50;19.23;;;614.90;768.00;;;;;;5133471;27;20023;-67
2022/01/14 11:42:59;;;;;;;26.00;18.92;;;;;;;;;;5133506;27;20019;-69
2022/01/14 11:45:45;;;;;;;20.40;16.05;;;;;;;;;;5133421;27;20031;-68
2022/01/14 11:48:52;;;;;;;26.05;19.48;;;;;;;;;;5115071;27;20068;-69
2022/01/14 11:51:18;;;;;;;37.13;27.15;;;;;;;;;;5067816;28;20029;-66
2022/01/14 11:53:55;;;;;;;21.00;18.58;;;;;;;;;;5068852;28;20052;-66
2022/01/14 11:56:31;;;;;;;24.38;17.02;;;;;;;;;;5070381;28;20037;-66
2022/01/14 11:59:17;;;;;;;23.85;17.08;;;;;;;;;;5053608;28;20036;-71
2022/01/14 12:01:47;;;;;;;24.17;20.42;;;589.40;819.20;;;;;;5059917;28;20036;-70
2022/01/14 12:04:13;;;;;;;25.50;20.38;;;;;;;;;;5070077;28;20190;-69
2022/01/14 12:06:51;;;;;;;24.48;16.95;;;;;;;;;;5070196;28;20028;-71
2022/01/14 12:09:17;;;;;;;29.65;18.80;;;;;;;;;;5070288;28;20037;-69
2022/01/14 12:11:43;;;;;;;25.70;18.25;;;;;;;;;;5070901;28;20096;-68
2022/01/14 12:14:11;;;;;;;19.98;15.20;;;;;;;;;;5057453;28;20486;-66
2022/01/14 12:16:47;;;;;;;23.27;14.88;;;;;;;;;;5074230;28;20047;-71
2022/01/14 12:19:16;;;;;;;35.80;31.95;;;;;;;;;;5074267;28;20040;-68
2022/01/14 12:21:51;;;;;;;35.63;31.00;;;;;;;;;;5095129;27;20549;-66
2022/01/14 12:24:30;;;;;;;27.15;21.25;;;;;;;;;;5137596;27;20504;-70
2022/01/14 12:27:07;;;;;;;24.08;18.25;;;;;;;;;;5137375;27;20019;-70
2022/01/14 12:30:08;;;;;;;30.20;23.88;;;;;;;;;;5137262;27;20022;-70
2022/01/14 12:32:34;;;;;;;35.35;27.55;;;;;;;;;;5073764;28;20479;-71
2022/01/14 12:35:05;;;;;;;38.47;30.00;;;;;;;;;;5073861;28;20135;-69
2022/01/14 12:37:32;;;;;;;24.38;20.75;;;;;;;;;;5056398;28;20036;-67
2022/01/14 12:40:06;;;;;;;30.15;18.15;;;;;;;;;;5073726;28;20112;-67
2022/01/14 12:42:32;;;;;;;26.23;17.33;;;;;;;;;;5073625;28;20186;-70
2022/01/14 12:45:00;;;;;;;28.25;20.60;;;;;;;;;;5056773;28;20485;-70
2022/01/14 12:47:31;;;;;;;17.63;13.80;;;;;;;;;;5073365;28;20095;-67
2022/01/14 12:50:01;;;;;;;19.80;14.93;;;;;;;;;;5073704;28;20032;-70
2022/01/14 12:52:37;;;;;;;28.17;21.40;;;;;;;;;;5072911;28;20052;-71
2022/01/14 12:55:06;;;;;;;21.23;16.35;;;;;;;;;;5056834;28;20450;-70
2022/01/14 12:57:32;;;;;;;27.30;20.05;;;;;;;;;;5056685;28;20115;-70
2022/01/14 12:59:58;;;;;;;23.38;17.05;;;;;;;;;;5073379;28;20047;-70
2022/01/14 13:02:26;;;;;;;23.23;17.13;;;;;;;;;;5073235;28;20046;-69
2022/01/14 13:05:07;;;;;;;27.83;20.70;;;;;;;;;;5056492;28;20070;-70
2022/01/14 13:07:34;;;;;;;31.20;22.48;;;;;;;;;;5124718;27;20473;-68
2022/01/14 13:10:00;;;;;;;30.73;21.50;;;;;;;;;;5136465;27;20020;-71
2022/01/14 13:12:38;;;;;;;24.00;16.70;;;;;;;;;;5136823;27;20446;-70
2022/01/14 13:15:05;;;;;;;32.22;24.67;;;;;;;;;;5136369;27;20023;-71
2022/01/14 13:17:33;;;;;;;24.27;17.50;;;;;;;;;;5136227;27;20466;-71
2022/01/14 13:20:08;;;;;;;46.00;36.50;;;;;;;;;;5136071;27;20046;-70
2022/01/14 13:22:34;;;;;;;34.10;25.20;;;;;;;;;;5136279;27;20034;-71
2022/01/14 13:25:02;;;;;;;33.15;27.50;;;;;;;;;;5135311;27;20039;-72
2022/01/14 13:27:35;;;;;;;43.95;34.88;;;;;;;;;;5136049;27;20023;-71
2022/01/14 13:30:20;;;;;;;41.45;32.35;;;;;;;;;;5136179;27;20030;-72
2022/01/14 13:32:46;;;;;;;39.20;29.20;;;;;;;;;;5136210;27;20026;-71
2022/01/14 13:35:15;;;;;;;41.78;33.28;;;;;;;;;;5136489;27;20390;-72
2022/01/14 13:37:44;;;;;;;37.03;28.60;;;;;;;;;;5117828;27;20034;-72
2022/01/14 13:40:18;;;;;;;43.05;31.58;;;;;;;;;;5117519;27;20109;-72
2022/01/14 13:43:13;;;;;;;29.23;20.45;;;;;;;;;;5135870;27;20430;-71
2022/01/14 13:45:42;;;;;;;31.50;23.80;;;;;;;;;;5064318;28;20048;-70
2022/01/14 13:48:25;;;;;;;29.08;20.42;;;512.60;947.20;;;;;;5072456;28;20025;-68
2022/01/14 13:51:07;;;;;;;30.88;21.38;;;;;;;;;;5072641;28;20055;-69
2022/01/14 13:53:34;;;;;;;40.75;25.33;;;;;;;;;;5055300;28;20155;-69
2022/01/14 13:56:05;;;;;;;31.90;21.05;;;;;;;;;;5072635;28;20048;-71
2022/01/14 13:58:31;;;;;;;30.00;19.27;;;;;;;;;;5072618;28;20099;-71
2022/01/14 14:01:02;;;;;;;35.50;24.90;;;;;;;;;;5072070;28;20050;-71
2022/01/14 14:03:42;;;;;;;43.47;26.58;;;;;;;;;;5055624;28;20479;-72
2022/01/14 14:06:17;;;;;;;49.75;36.30;;;;;;;;;;5055318;28;20506;-71
2022/01/14 14:08:50;;;;;;;51.03;37.33;;;;;;;;;;5072173;28;20119;-70
2022/01/14 14:17:04;;;;;;;40.47;26.65;;;;;;;;;;5072196;28;20071;-71
2022/01/14 14:19:42;;;;;;;38.08;27.00;;;;;;;;;;5072181;28;20090;-71
2022/01/14 14:22:20;;;;;;;45.55;32.25;;;;;;;;;;5103092;27;20043;-71
2022/01/14 14:24:57;;;;;;;55.80;34.95;;;;;;;;;;5135172;27;20389;-69
2022/01/14 14:27:24;;;;;;;56.33;36.20;;;;;;;;;;5135488;27;20088;-69
2022/01/14 14:29:52;;;;;;;68.55;45.38;;;435.90;1152.00;;;;;;5135209;27;20486;-72
2022/01/14 14:32:21;;;;;;;72.50;45.88;;;;;;;;;;5135089;27;20102;-72
2022/01/14 14:34:47;;;;;;;53.60;36.88;;;;;;;;;;5134751;27;20087;-70
2022/01/14 14:37:13;;;;;;;58.03;41.33;;;435.50;1152.00;;;;;;5135143;27;20019;-71